Time;durP1;ratioP1;P1;durP2;ratioP2;P2;SDS_P1;SDS_P2;PMS_P1;PMS_P2;Temp;Humidity;BMP_temperature;BMP_pressure;BME280_temperature;BME280_humidity;BME280_pressure;Samples;Min_cycle;Max_cycle;Signal;HPM_P1;HPM_P2
2022/06/21 00:01:22;;;;;;;;;12.50;12.50;;;;;20.17;53.27;100903.66;5078566;28;45336;-70
2022/06/21 00:03:49;;;;;;;;;9.67;8.33;;;;;19.86;53.04;100858.31;5079290;27;45522;-70
2022/06/21 00:06:19;;;;;;;;;6.67;6.67;;;;;20.21;53.03;100910.31;5092810;27;45489;-75
2022/06/21 00:08:45;;;;;;;;;12.33;11.33;;;;;19.76;53.04;100834.41;5079328;27;46635;-72
2022/06/21 00:11:20;;;;;;;;;9.67;9.67;;;;;20.14;53.11;100895.97;5078366;28;46052;-73
2022/06/21 00:13:45;;;;;;;;;9.33;9.33;;;;;19.50;53.27;100793.81;5079489;28;45308;-70
2022/06/21 00:16:14;;;;;;;;;8.67;7.67;;;;;19.62;53.59;100800.31;5077556;28;45639;-69
2022/06/21 00:18:41;;;;;;;;;9.00;9.00;;;;;19.87;53.33;100849.19;5079077;27;46635;-70
2022/06/21 00:21:36;;;;;;;;;10.33;10.33;;;;;20.09;53.64;100877.69;5077520;28;45459;-71
2022/06/21 00:24:02;;;;;;;;;10.00;10.00;;;;;19.96;53.39;100856.88;5078229;27;45253;-71
2022/06/21 00:26:29;;;;;;;;;13.00;11.67;;;;;20.10;53.40;100867.72;5094911;27;45537;-71
2022/06/21 00:28:55;;;;;;;;;10.33;10.33;;;;;19.90;53.66;100836.13;5077140;28;48245;-70
2022/06/21 00:31:25;;;;;;;;;10.33;10.00;;;;;19.39;53.35;100757.47;5078813;27;45259;-69
2022/06/21 00:33:51;;;;;;;;;10.33;10.33;;;;;19.96;53.30;100861.44;5079353;28;45267;-69
2022/06/21 00:36:24;;;;;;;;;12.33;11.00;;;;;19.82;53.21;100840.84;5079620;27;45374;-73
2022/06/21 00:38:51;;;;;;;;;9.33;9.33;;;;;20.10;53.00;100883.94;5078966;27;46387;-70
2022/06/21 00:41:20;;;;;;;;;7.00;7.00;;;;;20.07;53.36;100879.78;5077246;28;45537;-68
2022/06/21 00:43:53;;;;;;;;;10.00;10.00;;;;;19.95;53.36;100867.88;5078549;27;45355;-71
2022/06/21 00:46:30;;;;;;;;;11.67;11.67;;;;;20.08;53.10;100869.81;5078911;28;45515;-69
2022/06/21 00:48:56;;;;;;;;;9.33;9.33;;;;;20.11;53.13;100864.81;5077056;28;49093;-68
2022/06/21 00:51:42;;;;;;;;;15.33;13.67;;;;;20.06;53.10;100880.81;5076865;28;45223;-70
2022/06/21 00:55:04;;;;;;;;;8.67;8.67;;;;;19.69;53.41;100820.06;5078678;27;45330;-69
2022/06/21 00:57:42;;;;;;;;;12.00;12.00;;;;;20.12;52.82;100882.69;5056080;28;45357;-70
2022/06/21 01:00:30;;;;;;;;;15.33;13.00;;;;;20.00;53.13;100889.69;5078298;28;45816;-69
2022/06/21 01:02:59;;;;;;;;;10.00;10.00;;;;;19.93;53.26;100895.06;5078181;27;45453;-70
2022/06/21 01:05:29;;;;;;;;;10.67;10.67;;;;;19.89;53.62;100903.78;5077241;27;45348;-71
2022/06/21 01:07:57;;;;;;;;;13.00;10.33;;;;;19.63;53.23;100856.78;5078155;27;45438;-71
2022/06/21 01:10:23;;;;;;;;;10.00;10.00;;;;;19.65;53.67;100870.88;5077465;27;46666;-71
2022/06/21 01:12:59;;;;;;;;;10.33;10.33;;;;;19.53;53.38;100856.25;5078090;27;45316;-71
2022/06/21 01:15:31;;;;;;;;;12.67;12.33;;;;;19.80;53.77;100900.41;5078237;27;45243;-70
2022/06/21 01:18:00;;;;;;;;;14.67;12.67;;;;;19.56;53.79;100866.69;5078257;27;45298;-72
2022/06/21 01:20:31;;;;;;;;;10.33;10.33;;;;;19.61;53.74;100875.00;5077913;27;47846;-70
2022/06/21 01:23:10;;;;;;;;;11.33;10.33;;;;;19.75;53.86;100902.88;5078179;28;45488;-69
2022/06/21 01:25:47;;;;;;;;;11.33;11.33;;;;;19.75;53.66;100898.31;5078121;28;45213;-72
2022/06/21 01:28:14;;;;;;;;;12.00;12.00;;;;;19.51;53.86;100852.94;5078295;28;45273;-72
2022/06/21 01:30:43;;;;;;;;;11.67;11.33;;;;;19.69;53.33;100872.16;5077948;27;45593;-69
2022/06/21 01:33:15;;;;;;;;;14.67;12.67;;;;;19.71;53.48;100891.66;5078155;27;45297;-70
2022/06/21 01:35:47;;;;;;;;;11.00;11.00;;;;;19.46;53.43;100847.31;5078231;27;45314;-69
2022/06/21 01:38:19;;;;;;;;;14.00;12.67;;;;;19.71;53.68;100901.63;5078089;27;45255;-71
2022/06/21 01:40:48;;;;;;;;;11.33;11.33;;;;;19.75;53.60;100902.88;5077682;27;46355;-71
2022/06/21 01:43:20;;;;;;;;;11.33;11.33;;;;;19.20;53.50;100804.03;5077712;27;45618;-68
2022/06/21 01:45:57;;;;;;;;;11.67;11.33;;;;;19.93;53.26;100915.81;5077687;27;45446;-72
2022/06/21 01:48:45;;;;;;;;;10.67;10.33;;;;;19.96;52.91;100924.34;5077934;27;45627;-71
2022/06/21 01:51:23;;;;;;;;;10.67;10.67;;;;;20.01;53.21;100939.94;5076175;27;45496;-71
2022/06/21 01:53:49;;;;;;;;;15.00;12.00;;;;;19.85;52.82;100908.75;5077589;27;45474;-71
2022/06/21 01:56:21;;;;;;;;;15.00;12.67;;;;;19.60;52.73;100867.09;5077724;27;45417;-70
2022/06/21 01:58:54;;;;;;;;;7.00;7.00;;;;;20.12;52.45;100974.47;5076596;28;45347;-72
2022/06/21 02:01:19;;;;;;;;;13.33;12.33;;;;;20.06;52.57;100996.88;5077285;27;46673;-70
2022/06/21 02:03:48;;;;;;;;;11.67;9.67;;;;;19.54;52.41;100919.16;5077423;28;45414;-70
2022/06/21 02:06:15;;;;;;;;;9.67;9.67;;;;;19.92;52.91;100992.41;5077471;28;45270;-72
2022/06/21 02:08:57;;;;;;;;;9.67;9.67;;;;;19.49;53.06;100903.53;5076255;28;45382;-70
2022/06/21 02:11:35;;;;;;;;;12.00;11.00;;;;;19.91;52.71;100967.31;5077449;27;45837;-70
2022/06/21 02:16:51;;;;;;;;;12.67;12.33;;;;;19.96;52.70;100954.03;5077587;28;45346;-70
2022/06/21 02:19:34;;;;;;;;;12.00;11.33;;;;;19.80;52.54;100930.06;5076140;28;45607;-73
2022/06/21 02:22:00;;;;;;;;;11.33;10.00;;;;;19.85;53.16;100918.72;5077081;27;46331;-70
2022/06/21 02:24:28;;;;;;;;;11.67;11.67;;;;;19.99;52.52;100939.31;5076039;28;45401;-71
2022/06/21 02:26:56;;;;;;;;;12.00;11.00;;;;;19.97;52.91;100922.47;5077190;28;45247;-71
2022/06/21 02:29:22;;;;;;;;;10.67;8.33;;;;;19.67;53.12;100874.22;5076251;28;45415;-72
2022/06/21 02:31:49;;;;;;;;;12.33;11.33;;;;;19.84;53.44;100911.66;5076965;27;45716;-72
2022/06/21 02:34:41;;;;;;;;;12.67;10.00;;;;;19.83;53.04;100894.63;5076925;27;45460;-72
2022/06/21 02:37:09;;;;;;;;;9.67;9.67;;;;;19.04;53.02;100754.00;5057009;28;45576;-70
2022/06/21 02:39:36;;;;;;;;;11.33;11.33;;;;;19.87;53.17;100882.41;5056886;28;45453;-70
2022/06/21 02:42:09;;;;;;;;;10.33;10.33;;;;;19.96;52.94;100891.13;5056368;28;46417;-70
2022/06/21 02:44:41;;;;;;;;;12.33;12.33;;;;;19.98;53.16;100892.59;5070797;28;45502;-70
2022/06/21 02:47:13;;;;;;;;;11.00;11.00;;;;;19.80;53.36;100878.81;5077101;27;45695;-70
2022/06/21 02:49:45;;;;;;;;;13.67;13.00;;;;;19.95;53.54;100886.78;5093059;27;45375;-71
2022/06/21 02:52:35;;;;;;;;;12.33;12.33;;;;;19.88;53.62;100869.75;5076880;27;46068;-72
2022/06/21 02:55:16;;;;;;;;;11.00;11.00;;;;;19.91;53.60;100896.31;5077019;27;45272;-71
2022/06/21 02:57:49;;;;;;;;;9.67;9.00;;;;;19.59;53.95;100850.09;5077004;28;45498;-71
2022/06/21 03:00:17;;;;;;;;;10.00;9.33;;;;;19.72;54.12;100882.53;5075569;28;45535;-72
2022/06/21 03:02:44;;;;;;;;;11.33;11.33;;;;;19.73;54.81;100884.19;5076697;27;45686;-69
2022/06/21 03:05:20;;;;;;;;;12.00;11.33;;;;;19.68;54.81;100873.19;5076249;28;45169;-70
2022/06/21 03:07:54;;;;;;;;;12.00;11.00;;;;;19.29;55.71;100800.16;5075393;28;46303;-70
2022/06/21 03:10:24;;;;;;;;;13.67;12.67;;;;;19.56;55.75;100853.19;5076801;27;45366;-69
2022/06/21 03:13:01;;;;;;;;;11.67;11.33;;;;;19.09;56.12;100771.22;5075166;28;46711;-69
2022/06/21 03:15:26;;;;;;;;;12.67;12.67;;;;;19.73;55.68;100862.63;5075180;28;46070;-70
2022/06/21 03:17:57;;;;;;;;;13.33;11.67;;;;;19.55;56.03;100815.63;5076570;27;45555;-71
2022/06/21 03:20:22;;;;;;;;;13.33;13.33;;;;;18.99;55.46;100722.22;5076555;28;45660;-70
2022/06/21 03:22:52;;;;;;;;;14.67;13.00;;;;;19.37;55.51;100787.31;5076206;28;46443;-72
2022/06/21 03:25:25;;;;;;;;;9.33;9.33;;;;;19.72;55.85;100833.97;5091488;27;45423;-70
2022/06/21 03:27:59;;;;;;;;;10.33;10.33;;;;;19.52;56.05;100795.28;5076588;27;45519;-72
2022/06/21 03:30:30;;;;;;;;;10.67;10.67;;;;;19.57;55.80;100790.13;5092344;27;45540;-70
2022/06/21 03:32:57;;;;;;;;;13.33;10.67;;;;;19.63;55.85;100797.44;5076317;27;46714;-69
2022/06/21 03:35:25;;;;;;;;;10.67;10.67;;;;;18.90;55.67;100668.72;5078940;27;45303;-70
2022/06/21 03:37:51;;;;;;;;;13.33;12.00;;;;;19.54;56.06;100781.63;5080219;27;45417;-71
2022/06/21 03:43:31;;;;;;;;;13.33;13.33;;;;;19.32;56.02;100748.53;5079964;28;45560;-70
2022/06/21 03:46:01;;;;;;;;;12.33;11.33;;;;;19.31;56.45;100761.16;5076044;28;45333;-72
2022/06/21 03:48:42;;;;;;;;;12.33;12.33;;;;;18.63;56.33;100633.59;5078315;27;45325;-70
2022/06/21 03:51:18;;;;;;;;;11.67;11.67;;;;;18.79;56.49;100656.66;5095600;27;45503;-71
2022/06/21 03:54:16;;;;;;;;;16.00;14.33;;;;;19.29;56.38;100730.88;5078069;27;47415;-71
2022/06/21 03:56:48;;;;;;;;;13.33;12.33;;;;;19.30;57.21;100720.94;5078759;27;45497;-72
2022/06/21 03:59:32;;;;;;;;;13.33;12.33;;;;;19.35;57.19;100726.53;5079188;27;45493;-69
2022/06/21 04:02:13;;;;;;;;;14.67;13.67;;;;;19.30;57.21;100715.53;5079608;27;45338;-70
2022/06/21 04:04:57;;;;;;;;;13.67;12.33;;;;;19.29;57.08;100730.88;5078924;27;46680;-68
2022/06/21 04:07:52;;;;;;;;;18.33;12.67;;;;;19.23;57.14;100725.47;5080044;27;45334;-70
2022/06/21 04:10:18;;;;;;;;;12.00;12.00;;;;;19.17;57.41;100707.41;5095151;27;45539;-68
2022/06/21 04:12:56;;;;;;;;;13.67;12.33;;;;;19.21;57.62;100709.47;5079352;27;45335;-70
2022/06/21 04:15:29;;;;;;;;;14.00;12.67;;;;;19.18;57.76;100706.38;5079237;27;46641;-70
2022/06/21 04:18:05;;;;;;;;;15.00;14.00;;;;;18.89;58.46;100662.53;5078962;27;45338;-71
2022/06/21 04:21:09;;;;;;;;;16.33;12.00;;;;;18.68;58.71;100606.91;5078708;27;45429;-72
2022/06/21 04:23:50;;;;;;;;;14.33;11.33;;;;;18.23;58.90;100582.19;5078545;28;45496;-70
2022/06/21 04:26:23;;;;;;;;;16.33;14.00;;;;;18.85;59.58;100682.81;5078836;27;45830;-71
2022/06/21 04:28:55;;;;;;;;;15.33;14.67;;;;;18.50;59.69;100626.25;5078850;28;45390;-71
2022/06/21 04:31:20;;;;;;;;;14.33;14.33;;;;;18.90;59.82;100676.81;5079000;27;45260;-70
2022/06/21 04:33:52;;;;;;;;;12.67;12.67;;;;;18.67;60.07;100642.09;5078983;28;45386;-72
2022/06/21 04:36:36;;;;;;;;;12.33;11.67;;;;;18.76;60.14;100665.13;5076853;27;47060;-69
2022/06/21 04:39:21;;;;;;;;;17.67;15.33;;;;;18.78;59.91;100665.75;5078670;27;45226;-70
2022/06/21 04:41:56;;;;;;;;;12.00;11.67;;;;;18.29;60.11;100612.03;5077256;28;45339;-69
2022/06/21 04:44:36;;;;;;;;;16.00;14.67;;;;;18.07;60.88;100590.56;5094358;27;45331;-70
2022/06/21 04:47:25;;;;;;;;;14.00;8.67;;;;;18.48;60.92;100667.84;5076076;28;49107;-71
2022/06/21 04:50:01;;;;;;;;;13.67;13.67;;;;;18.36;61.76;100658.66;5078331;28;45397;-69
2022/06/21 04:52:42;;;;;;;;;17.67;15.33;;;;;18.42;62.06;100674.00;5078423;27;45553;-72
2022/06/21 04:55:16;;;;;;;;;13.67;13.67;;;;;18.24;61.61;100651.13;5078674;27;45377;-70
2022/06/21 04:57:44;;;;;;;;;15.33;15.33;;;;;18.40;61.11;100670.69;5076501;28;48289;-69
2022/06/21 05:00:16;;;;;;;;;19.67;16.33;;;;;18.26;61.92;100642.03;5078185;27;45266;-70
2022/06/21 05:02:52;;;;;;;;;14.00;11.33;;;;;18.23;61.79;100654.03;5078445;27;45333;-68
2022/06/21 05:05:34;;;;;;;;;15.00;13.00;;;;;18.34;62.00;100680.38;5078057;27;45380;-70
2022/06/21 05:08:13;;;;;;;;;11.00;11.00;;;;;18.07;61.55;100639.00;5077932;27;46023;-69
2022/06/21 05:10:44;;;;;;;;;16.67;14.00;;;;;18.46;60.61;100699.53;5078258;27;45338;-71
2022/06/21 05:13:20;;;;;;;;;15.67;14.33;;;;;18.48;60.91;100711.75;5077854;27;45488;-70
2022/06/21 05:15:46;;;;;;;;;16.00;15.33;;;;;18.29;60.88;100682.84;5077945;27;45397;-72
2022/06/21 05:18:26;;;;;;;;;13.67;12.33;;;;;18.41;61.27;100701.94;5076270;28;47442;-70
2022/06/21 05:20:58;;;;;;;;;19.67;14.67;;;;;18.10;60.77;100659.28;5075656;28;45425;-71
2022/06/21 05:23:24;;;;;;;;;14.33;14.00;;;;;18.49;60.72;100737.66;5076616;28;45411;-71
2022/06/21 05:25:50;;;;;;;;;16.33;14.33;;;;;18.42;60.30;100734.09;5078424;28;45335;-71
2022/06/21 05:28:22;;;;;;;;;11.67;11.67;;;;;18.42;60.65;100736.78;5077533;27;45509;-69
2022/06/21 05:30:55;;;;;;;;;13.33;13.33;;;;;18.49;60.62;100724.19;5077002;27;45482;-73
2022/06/21 05:33:36;;;;;;;;;14.67;14.67;;;;;18.42;60.83;100712.56;5077600;28;45611;-70
2022/06/21 05:36:06;;;;;;;;;14.33;13.33;;;;;18.32;61.38;100695.91;5077370;27;45547;-69
2022/06/21 05:38:35;;;;;;;;;16.33;14.67;;;;;18.34;61.57;100671.47;5077454;28;46384;-71
2022/06/21 05:41:09;;;;;;;;;17.33;15.67;;;;;18.46;60.94;100676.13;5092634;27;46733;-70
2022/06/21 05:43:39;;;;;;;;;11.00;10.33;;;;;18.74;60.41;100715.69;5077635;27;45256;-70
2022/06/21 05:46:17;;;;;;;;;8.33;5.67;;;;;18.66;60.13;100703.22;5075817;28;45503;-68
2022/06/21 05:48:44;;;;;;;;;14.00;14.00;;;;;18.44;60.28;100647.75;5077543;27;45848;-70
2022/06/21 05:51:24;;;;;;;;;9.67;9.67;;;;;18.79;59.62;100688.97;5075767;28;45373;-70
2022/06/21 05:53:55;;;;;;;;;15.00;13.00;;;;;18.95;59.71;100701.28;5076830;28;45465;-70
2022/06/21 05:56:25;;;;;;;;;18.00;16.33;;;;;19.14;58.86;100698.69;5077916;27;45303;-70
2022/06/21 05:58:59;;;;;;;;;18.00;15.00;;;;;18.66;57.41;100589.28;5077828;27;46681;-71
2022/06/21 06:01:28;;;;;;;;;17.67;17.67;;;;;19.41;58.06;100674.50;5077002;27;45643;-70
2022/06/21 06:04:02;;;;;;;;;15.00;15.00;;;;;19.30;56.45;100610.41;5077575;28;45517;-73
2022/06/21 06:06:34;;;;;;;;;17.33;15.00;;;;;20.07;55.91;100722.41;5076893;27;45581;-70
2022/06/21 06:09:09;;;;;;;;;17.00;17.00;;;;;20.20;56.15;100706.19;5077114;27;45638;-71
2022/06/21 06:11:59;;;;;;;;;18.67;16.33;;;;;19.80;55.41;100645.97;5076933;27;45541;-73
2022/06/21 06:14:40;;;;;;;;;19.67;15.00;;;;;20.02;55.43;100690.59;5077242;27;45448;-71
2022/06/21 06:17:28;;;;;;;;;17.33;15.00;;;;;20.09;54.77;100683.38;5076770;27;45332;-72
2022/06/21 06:20:26;;;;;;;;;16.00;16.00;;;;;20.50;54.88;100702.06;5076125;27;45880;-71
2022/06/21 06:22:55;;;;;;;;;14.33;12.33;;;;;20.81;54.35;100695.94;5077122;28;45265;-74
2022/06/21 06:25:31;;;;;;;;;14.00;14.00;;;;;21.14;52.81;100703.13;5092388;27;45550;-76
2022/06/21 06:28:23;;;;;;;;;12.00;12.00;;;;;21.51;52.38;100699.66;5075923;27;45437;-70
2022/06/21 06:31:05;;;;;;;;;15.67;14.00;;;;;21.22;51.22;100614.50;5075869;28;45987;-70
2022/06/21 06:33:41;;;;;;;;;13.00;13.00;;;;;21.66;50.38;100690.44;5074735;27;45296;-73
2022/06/21 06:36:12;;;;;;;;;15.67;14.00;;;;;21.84;50.86;100714.88;5076548;28;45284;-70
2022/06/21 06:38:39;;;;;;;;;13.67;13.67;;;;;21.94;50.32;100704.38;5075919;28;45587;-70
2022/06/21 06:41:14;;;;;;;;;13.00;13.00;;;;;22.12;50.27;100699.06;5075396;27;45817;-71
2022/06/21 06:43:48;;;;;;;;;12.67;12.33;;;;;22.21;49.65;100687.94;5076411;27;45243;-71
2022/06/21 06:46:34;;;;;;;;;13.33;13.00;;;;;22.57;49.17;100725.94;5074071;28;45459;-69
2022/06/21 06:49:20;;;;;;;;;13.67;13.67;;;;;22.65;48.99;100725.69;5076048;27;45308;-70
2022/06/21 06:51:58;;;;;;;;;15.33;12.67;;;;;22.89;48.72;100734.00;5091702;27;47798;-72
2022/06/21 06:54:33;;;;;;;;;13.00;12.33;;;;;22.82;48.56;100684.44;5075693;27;45628;-71
2022/06/21 06:57:31;;;;;;;;;14.00;14.00;;;;;23.37;47.34;100724.03;5076796;27;45327;-70
2022/06/21 06:59:59;;;;;;;;;15.67;12.67;;;;;23.54;47.52;100726.13;5068616;27;45605;-69
2022/06/21 07:02:34;;;;;;;;;15.33;15.33;;;;;23.81;47.72;100727.41;5076934;28;46884;-70
2022/06/21 07:05:12;;;;;;;;;12.67;12.67;;;;;23.63;46.40;100681.34;5075933;27;45434;-74
2022/06/21 07:07:45;;;;;;;;;12.33;11.33;;;;;24.16;45.93;100732.13;4993355;27;47989;-70
2022/06/21 07:10:17;;;;;;;;;14.33;12.67;;;;;23.86;45.43;100727.56;5000200;28;45501;-70
2022/06/21 07:12:43;;;;;;;;;14.33;13.33;;;;;21.81;46.53;100390.53;5014658;28;47834;-71
2022/06/21 07:15:11;;;;;;;;;14.67;14.00;;;;;24.11;46.55;100762.69;4999222;28;45480;-70
2022/06/21 07:17:46;;;;;;;;;14.00;12.67;;;;;23.69;45.40;100653.28;4997632;28;45471;-71
2022/06/21 07:20:15;;;;;;;;;16.00;15.33;;;;;24.51;45.32;100760.19;5005413;28;45460;-69
2022/06/21 07:22:43;;;;;;;;;14.00;13.00;;;;;24.55;44.71;100734.19;5007882;28;46093;-72
2022/06/21 07:25:30;;;;;;;;;13.33;13.33;;;;;24.88;43.79;100760.78;5008969;28;45325;-71
2022/06/21 07:28:00;;;;;;;;;16.33;14.67;;;;;24.93;44.40;100761.97;5027705;28;45524;-70
2022/06/21 07:30:33;;;;;;;;;13.67;12.67;;;;;25.01;44.96;100753.44;4995929;28;45894;-71
2022/06/21 07:33:08;;;;;;;;;14.00;13.67;;;;;24.80;43.96;100686.88;4997530;28;45755;-70
2022/06/21 07:35:44;;;;;;;;;15.33;15.33;;;;;25.50;44.03;100762.09;5014317;28;45439;-71
2022/06/21 07:38:19;;;;;;;;;13.33;13.33;;;;;25.65;43.39;100767.88;5007855;28;45466;-71
2022/06/21 07:40:59;;;;;;;;;13.67;13.67;;;;;25.50;42.58;100745.78;4999192;28;45606;-70
2022/06/21 07:43:37;;;;;;;;;13.33;13.33;;;;;25.73;42.61;100770.22;5016145;28;46824;-71
2022/06/21 07:46:05;;;;;;;;;16.33;15.00;;;;;25.72;42.75;100777.56;4995167;28;45438;-70
2022/06/21 07:49:05;;;;;;;;;13.67;12.67;;;;;25.68;42.58;100753.78;5001966;28;45368;-72
2022/06/21 07:52:04;;;;;;;;;14.67;14.67;;;;;25.25;42.73;100642.69;5035337;28;45246;-73
2022/06/21 07:54:41;;;;;;;;;14.33;14.33;;;;;26.21;42.72;100775.16;5036903;28;45470;-71
2022/06/21 07:57:35;;;;;;;;;11.67;11.67;;;;;26.35;42.15;100771.09;5019681;28;45526;-71
2022/06/21 08:00:12;;;;;;;;;13.67;13.67;;;;;26.48;42.06;100774.56;5033746;28;45435;-70
2022/06/21 08:08:51;;;;;;;;;12.33;12.33;;;;;26.55;42.59;100770.59;5017973;28;45399;-71
2022/06/21 08:11:33;;;;;;;;;13.33;13.33;;;;;26.57;42.57;100762.16;5017971;28;45507;-70
2022/06/21 08:13:59;;;;;;;;;16.33;16.33;;;;;26.43;42.02;100758.09;5018646;28;45301;-74
2022/06/21 08:16:33;;;;;;;;;15.00;13.67;;;;;26.34;42.59;100763.97;5016739;28;46396;-72
2022/06/21 08:19:17;;;;;;;;;14.33;13.33;;;;;26.14;43.45;100760.88;5018513;28;45315;-72
2022/06/21 08:21:48;;;;;;;;;14.33;14.33;;;;;26.13;43.27;100761.13;5046965;28;45514;-71
2022/06/21 08:24:33;;;;;;;;;15.00;13.67;;;;;26.15;43.32;100776.16;5019734;28;45542;-71
2022/06/21 08:26:58;;;;;;;;;16.67;16.33;;;;;25.85;43.32;100719.25;5033679;28;46343;-73
2022/06/21 08:29:33;;;;;;;;;15.67;14.00;;;;;25.50;43.87;100694.06;5021841;28;45549;-71
2022/06/21 08:32:07;;;;;;;;;19.67;18.00;;;;;25.80;43.76;100740.94;5033737;28;45278;-71
2022/06/21 08:34:46;;;;;;;;;14.00;14.00;;;;;25.94;44.20;100787.75;5019242;28;45600;-70
2022/06/21 08:37:41;;;;;;;;;15.00;14.00;;;;;25.80;44.29;100789.94;5017947;28;45372;-71
2022/06/21 08:40:39;;;;;;;;;14.33;14.33;;;;;25.66;44.46;100783.13;5016713;28;45539;-71
2022/06/21 08:43:41;;;;;;;;;15.67;15.00;;;;;25.69;45.22;100793.56;5018604;28;45508;-74
2022/06/21 08:46:31;;;;;;;;;16.67;16.67;;;;;25.71;45.13;100797.69;5019789;28;45392;-72
2022/06/21 08:49:30;;;;;;;;;19.33;16.00;;;;;25.68;45.22;100792.75;5033980;28;47672;-71
2022/06/21 08:52:36;;;;;;;;;14.67;14.67;;;;;25.69;46.21;100794.38;4998231;28;45392;-72
2022/06/21 08:55:12;;;;;;;;;17.00;17.00;;;;;25.66;45.39;100792.13;5016897;28;45595;-70
2022/06/21 08:57:55;;;;;;;;;16.00;13.00;;;;;25.63;45.45;100779.00;5021562;28;45520;-72
2022/06/21 09:00:21;;;;;;;;;18.67;17.33;;;;;25.76;45.58;100773.28;5030203;28;45837;-71
2022/06/21 09:03:07;;;;;;;;;16.67;14.67;;;;;25.73;45.50;100773.75;5016344;28;45456;-70
2022/06/21 09:06:00;;;;;;;;;19.33;17.67;;;;;25.73;46.19;100776.50;5033922;28;45361;-72
2022/06/21 09:08:59;;;;;;;;;18.33;17.33;;;;;26.15;45.70;100776.16;5016583;28;45546;-72
2022/06/21 09:11:46;;;;;;;;;18.67;18.67;;;;;26.01;45.24;100714.88;5030897;28;45688;-70
2022/06/21 09:14:32;;;;;;;;;20.67;18.00;;;;;26.23;44.21;100729.44;5035287;28;45530;-72
2022/06/21 09:17:00;;;;;;;;;17.67;16.33;;;;;26.79;43.98;100771.22;5015772;28;45462;-72
2022/06/21 09:19:28;;;;;;;;;17.67;17.00;;;;;26.98;43.59;100764.41;5015962;28;45395;-70
2022/06/21 09:22:15;;;;;;;;;17.00;17.00;;;;;26.78;44.14;100725.09;5017191;28;45533;-73
2022/06/21 09:24:55;;;;;;;;;17.33;17.00;;;;;26.95;43.10;100764.91;5035033;28;45178;-73
2022/06/21 09:27:38;;;;;;;;;18.00;15.33;;;;;26.74;43.62;100756.69;5033312;28;45515;-71
2022/06/21 09:30:22;;;;;;;;;18.00;18.00;;;;;26.82;43.74;100709.88;5034830;28;45534;-72
2022/06/21 09:33:03;;;;;;;;;18.00;17.00;;;;;28.04;42.51;100766.78;5019020;28;46390;-71
2022/06/21 09:35:47;;;;;;;;;25.00;21.67;;;;;28.98;40.38;100738.81;5017289;28;45488;-70
2022/06/21 09:38:13;;;;;;;;;18.00;17.67;;;;;30.31;38.52;100767.41;5028056;28;45397;-71
2022/06/21 09:40:57;;;;;;;;;17.00;17.00;;;;;31.18;36.80;100766.22;5023398;28;45299;-71
2022/06/21 09:43:40;;;;;;;;;15.67;15.33;;;;;31.76;35.60;100766.50;5032535;28;46064;-71
2022/06/21 09:46:21;;;;;;;;;22.67;20.33;;;;;32.01;33.93;100759.19;5015484;28;45368;-71
2022/06/21 09:49:19;;;;;;;;;18.33;16.67;;;;;31.94;34.63;100739.44;5021124;28;45369;-71
2022/06/21 09:52:03;;;;;;;;;17.67;15.33;;;;;31.37;33.78;100619.97;5032034;28;45540;-71
2022/06/21 09:54:36;;;;;;;;;20.00;19.33;;;;;32.66;32.70;100757.00;5016767;28;45738;-72
2022/06/21 09:57:11;;;;;;;;;17.33;17.33;;;;;33.30;32.41;100749.41;5030694;28;45446;-72
2022/06/21 10:00:02;;;;;;;;;17.67;17.67;;;;;34.01;30.49;100740.97;5017062;28;45261;-70
2022/06/21 10:02:50;;;;;;;;;21.33;19.00;;;;;34.55;30.61;100739.53;5022232;28;46598;-71
2022/06/21 10:05:31;;;;;;;;;15.00;14.33;;;;;34.55;30.10;100731.25;5029518;28;46596;-73
2022/06/21 10:08:08;;;;;;;;;14.33;14.00;;;;;33.90;30.70;100724.91;5034995;28;45401;-73
2022/06/21 10:11:00;;;;;;;;;14.67;14.67;;;;;33.20;31.76;100722.78;5045548;28;45474;-69
2022/06/21 10:14:11;;;;;;;;;20.33;17.33;;;;;32.38;33.12;100726.44;5031049;28;45883;-71
2022/06/21 10:17:01;;;;;;;;;15.67;15.00;;;;;31.29;34.63;100722.22;5034635;28;46270;-71
2022/06/21 10:20:08;;;;;;;;;13.67;13.67;;;;;30.53;36.09;100721.31;5034880;28;46635;-72
2022/06/21 10:22:43;;;;;;;;;13.00;13.00;;;;;30.08;37.43;100707.66;5031842;28;45369;-71
2022/06/21 10:25:37;;;;;;;;;15.33;15.33;;;;;29.59;37.48;100706.19;5039894;28;45353;-72
2022/06/21 10:28:24;;;;;;;;;17.33;15.67;;;;;29.14;38.66;100709.59;5033235;28;45451;-70
2022/06/21 10:31:07;;;;;;;;;13.33;13.33;;;;;28.73;39.41;100698.41;5014881;28;45963;-71
2022/06/21 10:33:41;;;;;;;;;14.00;14.00;;;;;27.67;39.95;100618.38;5016163;28;45477;-72
2022/06/21 10:36:27;;;;;;;;;20.00;19.00;;;;;27.71;41.32;100691.34;5014892;28;45615;-72
2022/06/21 10:39:08;;;;;;;;;24.67;24.67;;;;;27.43;41.74;100700.59;5036251;28;45425;-72
2022/06/21 10:42:46;;;;;;;;;19.67;18.67;;;;;27.28;42.67;100692.22;5036420;28;45290;-69
2022/06/21 10:44:49;;;;;;;;;26.00;25.33;;;;;27.14;43.05;100696.41;5014893;28;45541;-72
2022/06/21 10:47:54;;;;;;;;;17.67;17.67;;;;;27.00;43.08;100692.41;5016803;28;45518;-70
2022/06/21 10:50:41;;;;;;;;;22.33;15.67;;;;;26.93;43.76;100687.13;5018035;28;48984;-74
2022/06/21 10:53:31;;;;;;;;;18.33;18.33;;;;;26.79;43.99;100689.38;5017455;28;45559;-71
2022/06/21 10:59:06;;;;;;;;;22.33;21.00;;;;;25.90;43.82;100577.69;5013699;28;45512;-71
2022/06/21 11:01:37;;;;;;;;;16.67;16.33;;;;;26.10;44.51;100631.66;5028986;28;45603;-70
2022/06/21 11:04:50;;;;;;;;;15.67;14.33;;;;;26.30;44.45;100674.75;5038991;28;45446;-71
2022/06/21 11:07:34;;;;;;;;;18.00;17.00;;;;;26.10;44.94;100645.28;5019884;28;45473;-70
2022/06/21 11:10:07;;;;;;;;;21.33;21.33;;;;;26.20;44.55;100669.97;5039060;28;45417;-71
2022/06/21 11:12:56;;;;;;;;;16.33;16.33;;;;;26.06;44.91;100676.84;5032353;28;47178;-70
2022/06/21 11:15:43;;;;;;;;;19.67;17.67;;;;;25.97;45.34;100664.69;5019239;28;45289;-70
2022/06/21 11:18:49;;;;;;;;;23.00;19.67;;;;;25.83;45.86;100658.75;5019781;28;45425;-68
2022/06/21 11:21:48;;;;;;;;;24.00;22.00;;;;;25.68;45.78;100664.75;5028341;28;45318;-70
2022/06/21 11:24:31;;;;;;;;;23.67;21.67;;;;;25.73;46.17;100670.28;5032580;28;48123;-76
2022/06/21 11:27:21;;;;;;;;;18.67;17.33;;;;;25.74;46.40;100666.50;5034181;28;45427;-72
2022/06/21 11:30:09;;;;;;;;;29.33;27.67;;;;;25.71;46.22;100663.44;5037838;28;45386;-70
2022/06/21 11:32:42;;;;;;;;;19.00;16.33;;;;;25.70;46.46;100659.06;5037349;28;45464;-74
2022/06/21 11:35:25;;;;;;;;;21.00;19.33;;;;;25.76;46.22;100663.50;5038433;28;46307;-72
2022/06/21 11:38:06;;;;;;;;;19.67;19.67;;;;;25.71;46.29;100660.72;5037906;28;45301;-71
2022/06/21 11:40:59;;;;;;;;;15.67;15.67;;;;;25.57;46.43;100668.31;5038822;28;45369;-69
2022/06/21 11:43:52;;;;;;;;;16.00;14.00;;;;;25.56;47.28;100658.50;5037743;28;45441;-72
2022/06/21 11:46:57;;;;;;;;;25.67;24.67;;;;;25.64;46.93;100658.13;5038506;28;45466;-68
2022/06/21 11:49:31;;;;;;;;;18.00;17.33;;;;;25.65;46.36;100651.59;5034001;28;46173;-73
2022/06/21 11:52:25;;;;;;;;;14.67;14.67;;;;;25.63;46.62;100658.34;5038985;28;45602;-71
2022/06/21 11:55:20;;;;;;;;;15.33;14.33;;;;;25.57;46.72;100665.59;5039211;28;45542;-70
2022/06/21 11:58:16;;;;;;;;;17.33;16.67;;;;;25.53;47.07;100664.44;5019743;28;46919;-71
2022/06/21 12:00:52;;;;;;;;;12.67;11.00;;;;;25.60;46.77;100661.56;5036341;28;45705;-71
2022/06/21 12:03:54;;;;;;;;;18.33;16.00;;;;;25.63;47.05;100670.09;5038809;28;45405;-71
2022/06/21 12:06:31;;;;;;;;;15.33;15.33;;;;;25.11;47.28;100561.38;5054229;28;45534;-71
2022/06/21 12:09:23;;;;;;;;;18.00;18.00;;;;;25.29;47.21;100586.72;5037385;28;46961;-70
2022/06/21 12:12:16;;;;;;;;;15.00;13.67;;;;;25.80;46.99;100642.06;5038521;28;45425;-70
2022/06/21 12:15:00;;;;;;;;;21.00;18.67;;;;;25.64;46.55;100630.91;5038786;28;45440;-73